createdAt,value
2023-03-21T00:00:48.231Z,101069.59
2023-03-21T00:03:16.248Z,101066.56
2023-03-21T00:05:49.613Z,101065.25
2023-03-21T00:08:16.198Z,101063.34
2023-03-21T00:10:43.890Z,101069.44
2023-03-21T00:13:15.398Z,101063.97
2023-03-21T00:16:06.162Z,101062.84
2023-03-21T00:18:46.565Z,101063.34
2023-03-21T00:21:39.534Z,101057.88
2023-03-21T00:24:02.624Z,101062.69
2023-03-21T00:26:29.292Z,101060.09
2023-03-21T00:28:55.740Z,101052.09
2023-03-21T00:31:22.152Z,101059.84
2023-03-21T00:33:48.562Z,101054.16
2023-03-21T00:36:15.851Z,101053.09
2023-03-21T00:38:42.681Z,101047.94
2023-03-21T00:41:23.276Z,101047.75
2023-03-21T00:43:55.325Z,101041.97
2023-03-21T00:46:23.272Z,101048.66
2023-03-21T00:48:49.928Z,101051.84
2023-03-21T00:51:25.892Z,101047.69
2023-03-21T00:53:57.132Z,101048.34
2023-03-21T00:56:23.641Z,101046.75
2023-03-21T00:58:51.107Z,101037.34
2023-03-21T01:01:18.333Z,101043.41
2023-03-21T01:03:50.719Z,101035.19
2023-03-21T01:06:22.145Z,101037.28
2023-03-21T01:08:52.642Z,101040.47
2023-03-21T01:11:22.992Z,101030.38
2023-03-21T01:14:20.956Z,101036.03
2023-03-21T01:16:37.625Z,101031.50
2023-03-21T01:19:11.869Z,101031.88
2023-03-21T01:21:41.262Z,101025.94
2023-03-21T01:24:08.043Z,101030.59
2023-03-21T01:26:34.496Z,101041.16
2023-03-21T01:29:00.925Z,101038.00
2023-03-21T01:31:27.380Z,101041.16
2023-03-21T01:33:53.792Z,101029.78
2023-03-21T01:36:24.313Z,101035.09
2023-03-21T01:38:52.243Z,101027.84
2023-03-21T01:41:26.200Z,101031.72
2023-03-21T01:43:55.308Z,101030.94
2023-03-21T01:46:54.476Z,101018.94
2023-03-21T01:49:28.650Z,101030.97
2023-03-21T01:52:11.539Z,101028.88
2023-03-21T01:54:43.001Z,101025.78
2023-03-21T01:57:13.809Z,101023.94
2023-03-21T01:59:54.483Z,101025.19
2023-03-21T02:02:28.368Z,101023.44
2023-03-21T02:04:58.132Z,101020.06
2023-03-21T02:07:29.759Z,101024.88
2023-03-21T02:09:57.914Z,101019.72
2023-03-21T02:12:26.542Z,101023.75
2023-03-21T02:14:53.544Z,101020.22
2023-03-21T02:17:59.497Z,101017.66
2023-03-21T02:20:52.319Z,101024.38
2023-03-21T02:23:30.477Z,101014.59
2023-03-21T02:26:15.624Z,101014.28
2023-03-21T02:28:47.664Z,101012.69
2023-03-21T02:32:09.291Z,101009.16
2023-03-21T02:34:46.273Z,101009.72
2023-03-21T02:37:42.919Z,101008.50
2023-03-21T02:40:30.763Z,101017.59
2023-03-21T02:43:23.366Z,101008.81
2023-03-21T02:46:28.298Z,101015.06
2023-03-21T02:49:38.522Z,101010.63
2023-03-21T02:52:17.073Z,101017.00
2023-03-21T02:54:49.436Z,101015.06
2023-03-21T02:57:19.324Z,101009.81
2023-03-21T02:59:55.553Z,101015.06
2023-03-21T03:02:27.099Z,101015.56
2023-03-21T03:04:53.661Z,101013.13
2023-03-21T03:07:41.489Z,101016.19
2023-03-21T03:10:31.401Z,101013.44
2023-03-21T03:13:18.605Z,101015.69
2023-03-21T03:15:57.249Z,101016.03
2023-03-21T03:18:23.964Z,101018.84
2023-03-21T03:21:15.536Z,101015.03
2023-03-21T03:23:54.052Z,101007.00
2023-03-21T03:26:41.025Z,101011.47
2023-03-21T03:29:12.146Z,101012.63
2023-03-21T03:31:48.958Z,101004.28
2023-03-21T03:34:21.111Z,101011.00
2023-03-21T03:36:56.096Z,101008.81
2023-03-21T03:39:35.590Z,101012.31
2023-03-21T03:42:21.756Z,101021.16
2023-03-21T03:44:54.120Z,101017.78
2023-03-21T03:47:35.062Z,101008.81
2023-03-21T03:50:13.330Z,101012.84
2023-03-21T03:52:56.233Z,101013.31
2023-03-21T03:55:27.045Z,101010.28
2023-03-21T03:57:54.868Z,101017.97
2023-03-21T04:00:21.438Z,101016.03
2023-03-21T04:02:47.926Z,101010.78
2023-03-21T04:05:14.474Z,101009.16
2023-03-21T04:07:41.288Z,101014.94
2023-03-21T04:10:08.145Z,101009.97
2023-03-21T04:12:34.554Z,101011.72
2023-03-21T04:15:09.945Z,101011.56
2023-03-21T04:17:38.347Z,101014.13
2023-03-21T04:20:12.346Z,101006.91
2023-03-21T04:22:41.909Z,101011.38
2023-03-21T04:25:09.150Z,101009.63
2023-03-21T04:27:35.681Z,101013.50
2023-03-21T04:30:03.417Z,101014.44
2023-03-21T04:32:33.781Z,101008.72
2023-03-21T04:35:00.802Z,101007.19
2023-03-21T04:37:27.926Z,101012.47
2023-03-21T04:39:54.801Z,101009.75
2023-03-21T04:42:21.414Z,101011.03
2023-03-21T04:44:48.900Z,101010.72
2023-03-21T04:47:16.311Z,101012.53
2023-03-21T04:49:43.485Z,101008.34
2023-03-21T04:52:09.896Z,101001.13
2023-03-21T04:54:36.866Z,101004.47
2023-03-21T04:57:04.564Z,101007.56
2023-03-21T04:59:31.576Z,101007.25
2023-03-21T05:01:58.610Z,101006.28
2023-03-21T05:04:27.227Z,101003.38
2023-03-21T05:06:54.985Z,101000.97
2023-03-21T05:09:22.258Z,101002.09
2023-03-21T05:11:49.319Z,100994.09
2023-03-21T05:14:19.128Z,100990.53
2023-03-21T05:16:53.128Z,100990.28
2023-03-21T05:19:22.708Z,100992.50
2023-03-21T05:21:49.953Z,100991.22
2023-03-21T05:24:19.917Z,100996.00
2023-03-21T05:26:50.394Z,100986.06
2023-03-21T05:29:18.731Z,100990.88
2023-03-21T05:31:46.178Z,100994.69
2023-03-21T05:34:13.821Z,100990.88
2023-03-21T05:36:40.276Z,100986.34
2023-03-21T05:39:06.938Z,100989.56
2023-03-21T05:41:33.420Z,100984.94
2023-03-21T05:44:00.722Z,100985.38
2023-03-21T05:46:27.265Z,100985.38
2023-03-21T05:48:53.757Z,100984.09
2023-03-21T05:51:20.148Z,100985.75
2023-03-21T05:53:46.639Z,100990.03
2023-03-21T05:56:13.065Z,100986.84
2023-03-21T05:58:39.504Z,100988.16
2023-03-21T06:01:06.331Z,100983.28
2023-03-21T06:03:32.900Z,100979.59
2023-03-21T06:05:59.496Z,100983.44
2023-03-21T06:08:25.905Z,100980.75
2023-03-21T06:10:52.455Z,100981.19
2023-03-21T06:13:18.861Z,100984.28
2023-03-21T06:15:45.347Z,100978.34
2023-03-21T06:18:11.749Z,100984.94
2023-03-21T06:20:38.258Z,100976.09
2023-03-21T06:23:04.677Z,100973.19
2023-03-21T06:25:31.168Z,100979.31
2023-03-21T06:27:57.592Z,100976.56
2023-03-21T06:30:24.042Z,100983.50
2023-03-21T06:32:50.723Z,100984.28
2023-03-21T06:35:17.190Z,100979.97
2023-03-21T06:37:45.391Z,100983.59
2023-03-21T06:40:13.656Z,100980.53
2023-03-21T06:42:40.277Z,100981.06
2023-03-21T06:45:07.141Z,100982.59
2023-03-21T06:47:33.617Z,100982.59
2023-03-21T06:50:00.025Z,100985.66
2023-03-21T06:52:26.394Z,100987.97
2023-03-21T06:54:52.869Z,100988.06
2023-03-21T06:57:21.761Z,100987.09
2023-03-21T06:59:48.184Z,100984.44
2023-03-21T07:02:15.130Z,100985.34
2023-03-21T07:04:41.710Z,100987.06
2023-03-21T07:07:08.194Z,100987.75
2023-03-21T07:09:34.839Z,100985.03
2023-03-21T07:12:01.345Z,100984.66
2023-03-21T07:14:28.009Z,100984.34
2023-03-21T07:16:54.507Z,100978.38
2023-03-21T07:19:20.908Z,100976.16
2023-03-21T07:21:47.340Z,100984.66
2023-03-21T07:24:13.788Z,100979.34
2023-03-21T07:26:40.294Z,100981.09
2023-03-21T07:29:06.776Z,100989.94
2023-03-21T07:31:33.372Z,100974.66
2023-03-21T07:33:59.809Z,100980.13
2023-03-21T07:36:26.453Z,100985.72
2023-03-21T07:38:52.901Z,100983.41
2023-03-21T07:41:19.348Z,100985.22
2023-03-21T07:43:45.882Z,100989.34
2023-03-21T07:46:12.384Z,100984.41
2023-03-21T07:48:39.049Z,100984.06
2023-03-21T07:51:06.429Z,100982.66
2023-03-21T07:53:33.148Z,100987.44
2023-03-21T07:55:59.544Z,100988.06
2023-03-21T07:58:27.160Z,100978.94
2023-03-21T08:00:55.406Z,100979.19
2023-03-21T08:03:23.750Z,100979.53
2023-03-21T08:05:50.607Z,100981.69
2023-03-21T08:08:17.072Z,100979.00
2023-03-21T08:10:44.383Z,100984.28
2023-03-21T08:13:10.981Z,100981.84
2023-03-21T08:15:38.155Z,100993.09
2023-03-21T08:18:04.864Z,100985.59
2023-03-21T08:20:31.328Z,100985.56
2023-03-21T08:22:57.786Z,100985.47
2023-03-21T08:25:24.236Z,100993.00
2023-03-21T08:27:51.678Z,100981.72
2023-03-21T08:30:21.850Z,100991.78
2023-03-21T08:32:49.158Z,100994.13
2023-03-21T08:35:18.179Z,100994.19
2023-03-21T08:37:44.946Z,100993.78
2023-03-21T08:40:15.606Z,100985.31
2023-03-21T08:42:42.496Z,100982.88
2023-03-21T08:45:10.957Z,100989.16
2023-03-21T08:47:37.492Z,100988.28
2023-03-21T08:50:09.385Z,100991.53
2023-03-21T08:52:35.904Z,100987.66
2023-03-21T08:55:02.692Z,100986.13
2023-03-21T08:57:29.961Z,100980.31
2023-03-21T08:59:56.964Z,100985.53
2023-03-21T09:02:23.724Z,100977.22
2023-03-21T09:04:53.044Z,100981.28
2023-03-21T09:07:20.063Z,100977.31
2023-03-21T09:09:53.454Z,100978.47
2023-03-21T09:12:24.617Z,100979.44
2023-03-21T09:14:53.064Z,100973.06
2023-03-21T09:17:21.212Z,100970.00
2023-03-21T09:19:49.261Z,100977.78
2023-03-21T09:22:17.319Z,100971.59
2023-03-21T09:24:47.530Z,100971.44
2023-03-21T09:27:15.739Z,100975.56
2023-03-21T09:29:44.659Z,100973.38
2023-03-21T09:32:13.329Z,100969.41
2023-03-21T09:34:41.118Z,100971.25
2023-03-21T09:37:13.117Z,100971.47
2023-03-21T09:39:44.719Z,100969.47
2023-03-21T09:42:20.659Z,100970.38
2023-03-21T09:45:07.590Z,100972.97
2023-03-21T09:47:49.453Z,100972.50
2023-03-21T09:50:31.923Z,100978.72
2023-03-21T09:53:06.029Z,100974.22
2023-03-21T09:55:40.927Z,100975.47
2023-03-21T09:58:29.720Z,100975.09
2023-03-21T10:01:05.242Z,100971.41
2023-03-21T10:03:36.837Z,100969.22
2023-03-21T10:06:13.147Z,100976.53
2023-03-21T10:08:41.848Z,100973.66
2023-03-21T10:11:22.582Z,100963.19
2023-03-21T10:13:59.942Z,100966.22
2023-03-21T10:16:36.705Z,100966.00
2023-03-21T10:19:10.304Z,100957.59
2023-03-21T10:24:28.465Z,100964.56
2023-03-21T10:26:56.226Z,100958.06
2023-03-21T10:29:29.224Z,100957.59
2023-03-21T10:31:56.200Z,100952.81
2023-03-21T10:34:37.490Z,100948.25
2023-03-21T10:37:05.584Z,100954.84
2023-03-21T10:39:43.557Z,100947.56
2023-03-21T10:42:19.455Z,100952.13
2023-03-21T10:44:49.237Z,100947.78
2023-03-21T10:47:25.487Z,100948.34
2023-03-21T10:50:09.640Z,100947.66
2023-03-21T10:52:45.503Z,100946.19
2023-03-21T10:55:28.764Z,100944.25
2023-03-21T10:57:59.993Z,100947.91
2023-03-21T11:00:33.581Z,100939.13
2023-03-21T11:03:00.499Z,100937.16
2023-03-21T11:05:35.016Z,100940.34
2023-03-21T11:08:18.772Z,100934.97
2023-03-21T11:10:55.216Z,100943.66
2023-03-21T11:13:32.682Z,100933.56
2023-03-21T11:16:07.103Z,100931.28
2023-03-21T11:18:39.084Z,100928.56
2023-03-21T11:21:08.575Z,100930.31
2023-03-21T11:23:41.190Z,100933.75
2023-03-21T11:26:17.460Z,100930.00
2023-03-21T11:28:45.971Z,100937.16
2023-03-21T11:31:12.840Z,100929.16
2023-03-21T11:33:45.903Z,100931.66
2023-03-21T11:36:18.551Z,100930.78
2023-03-21T11:38:50.805Z,100934.19
2023-03-21T11:41:25.588Z,100922.91
2023-03-21T11:43:54.010Z,100926.56
2023-03-21T11:46:29.078Z,100926.34
2023-03-21T11:48:57.372Z,100916.41
2023-03-21T11:51:53.901Z,100921.31
2023-03-21T11:54:35.781Z,100918.09
2023-03-21T11:57:05.005Z,100922.19
2023-03-21T11:59:56.751Z,100910.94
2023-03-21T12:02:41.406Z,100918.50
2023-03-21T12:05:19.146Z,100910.81
2023-03-21T12:07:59.313Z,100902.75
2023-03-21T12:10:43.236Z,100903.63
2023-03-21T12:13:21.520Z,100903.53
2023-03-21T12:16:04.045Z,100907.81
2023-03-21T12:18:53.921Z,100897.94
2023-03-21T12:21:29.175Z,100894.66
2023-03-21T12:24:20.180Z,100896.50
2023-03-21T12:27:02.847Z,100895.28
2023-03-21T12:30:03.224Z,100895.13
2023-03-21T12:32:54.455Z,100895.22
2023-03-21T12:35:29.773Z,100885.03
2023-03-21T12:38:15.902Z,100888.00
2023-03-21T12:41:10.293Z,100890.59
2023-03-21T12:43:58.482Z,100882.97
2023-03-21T12:46:37.179Z,100889.63
2023-03-21T12:49:13.804Z,100884.94
2023-03-21T12:51:44.071Z,100879.44
2023-03-21T12:54:23.471Z,100880.59
2023-03-21T12:56:57.227Z,100878.97
2023-03-21T12:59:38.889Z,100873.31
2023-03-21T13:02:17.378Z,100869.91
2023-03-21T13:05:00.176Z,100872.22
2023-03-21T13:07:31.809Z,100864.94
2023-03-21T13:09:59.433Z,100870.34
2023-03-21T13:12:41.755Z,100864.56
2023-03-21T13:15:24.878Z,100862.72
2023-03-21T13:18:01.999Z,100858.84
2023-03-21T13:20:46.233Z,100856.28
2023-03-21T13:23:13.856Z,100851.84
2023-03-21T13:25:47.443Z,100849.34
2023-03-21T13:28:28.266Z,100845.16
2023-03-21T13:31:16.737Z,100841.03
2023-03-21T13:33:46.704Z,100844.78
2023-03-21T13:36:16.080Z,100838.72
2023-03-21T13:38:50.232Z,100839.66
2023-03-21T13:41:28.376Z,100844.91
2023-03-21T13:43:57.500Z,100830.53
2023-03-21T13:46:26.869Z,100832.03
2023-03-21T13:48:58.922Z,100833.13
2023-03-21T13:51:28.902Z,100822.16
2023-03-21T13:54:11.428Z,100823.47
2023-03-21T13:56:46.991Z,100829.81
2023-03-21T13:59:17.347Z,100821.06
2023-03-21T14:02:19.296Z,100820.25
2023-03-21T14:05:04.253Z,100824.50
2023-03-21T14:07:36.695Z,100820.47
2023-03-21T14:10:08.568Z,100824.59
2023-03-21T14:12:40.738Z,100809.16
2023-03-21T14:15:26.197Z,100813.38
2023-03-21T14:17:56.955Z,100810.13
2023-03-21T14:20:29.148Z,100815.38
2023-03-21T14:22:55.763Z,100803.91
2023-03-21T14:25:29.250Z,100803.03
2023-03-21T14:28:01.471Z,100798.25
2023-03-21T14:30:32.858Z,100796.13
2023-03-21T14:33:04.851Z,100798.09
2023-03-21T14:35:32.363Z,100790.31
2023-03-21T14:38:05.632Z,100796.31
2023-03-21T14:40:32.036Z,100794.72
2023-03-21T14:43:05.044Z,100789.97
2023-03-21T14:45:33.767Z,100781.53
2023-03-21T14:48:08.220Z,100787.81
2023-03-21T14:50:40.841Z,100786.06
2023-03-21T14:53:14.491Z,100785.53
2023-03-21T14:55:44.835Z,100778.19
2023-03-21T14:58:14.285Z,100771.53
2023-03-21T15:00:40.827Z,100776.75
2023-03-21T15:03:07.620Z,100774.91
2023-03-21T15:05:38.442Z,100771.19
2023-03-21T15:08:14.770Z,100769.59
2023-03-21T15:10:41.764Z,100763.13
2023-03-21T15:13:18.551Z,100765.94
2023-03-21T15:15:45.631Z,100760.41
2023-03-21T15:18:17.375Z,100751.50
2023-03-21T15:20:46.517Z,100749.47
2023-03-21T15:23:19.929Z,100742.19
2023-03-21T15:25:46.414Z,100746.25
2023-03-21T15:28:14.244Z,100740.78
2023-03-21T15:30:48.190Z,100737.69
2023-03-21T15:33:15.249Z,100728.75
2023-03-21T15:35:48.235Z,100732.44
2023-03-21T15:38:36.294Z,100729.72
2023-03-21T15:41:21.160Z,100723.72
2023-03-21T15:43:59.938Z,100723.25
2023-03-21T15:46:48.250Z,100723.25
2023-03-21T15:49:14.746Z,100715.63
2023-03-21T15:51:43.433Z,100713.69
2023-03-21T15:54:27.109Z,100710.25
2023-03-21T15:56:56.438Z,100711.72
2023-03-21T15:59:26.729Z,100707.66
2023-03-21T16:01:53.288Z,100700.97
2023-03-21T16:04:20.340Z,100694.22
2023-03-21T16:07:14.437Z,100699.78
2023-03-21T16:09:44.659Z,100695.28
2023-03-21T16:12:13.940Z,100686.69
2023-03-21T16:14:42.557Z,100687.84
2023-03-21T16:17:33.158Z,100690.84
2023-03-21T16:20:00.735Z,100687.84
2023-03-21T16:22:34.852Z,100686.59
2023-03-21T16:25:01.326Z,100691.06
2023-03-21T16:27:28.472Z,100684.41
2023-03-21T16:29:54.861Z,100681.06
2023-03-21T16:32:21.311Z,100682.84
2023-03-21T16:34:48.348Z,100683.91
2023-03-21T16:37:16.054Z,100680.13
2023-03-21T16:39:43.013Z,100677.38
2023-03-21T16:42:11.885Z,100682.03
2023-03-21T16:44:39.530Z,100684.88
2023-03-21T16:47:17.166Z,100683.03
2023-03-21T16:49:44.157Z,100686.72
2023-03-21T16:52:12.488Z,100685.13
2023-03-21T16:54:40.241Z,100692.19
2023-03-21T16:57:15.612Z,100682.84
2023-03-21T16:59:42.732Z,100687.00
2023-03-21T17:02:14.534Z,100685.84
2023-03-21T17:04:41.036Z,100684.94
2023-03-21T17:07:14.138Z,100683.34
2023-03-21T17:09:43.645Z,100682.72
2023-03-21T17:12:13.635Z,100680.25
2023-03-21T17:14:41.887Z,100677.97
2023-03-21T17:17:16.273Z,100686.84
2023-03-21T17:19:43.155Z,100680.84
2023-03-21T17:22:11.891Z,100680.59
2023-03-21T17:24:39.725Z,100674.09
2023-03-21T17:27:08.297Z,100676.53
2023-03-21T17:29:34.782Z,100670.13
2023-03-21T17:32:01.246Z,100668.97
2023-03-21T17:34:27.681Z,100667.50
2023-03-21T17:36:54.556Z,100659.28
2023-03-21T17:39:24.195Z,100659.28
2023-03-21T17:41:52.016Z,100659.09
2023-03-21T17:44:19.864Z,100654.88
2023-03-21T17:46:46.836Z,100650.75
2023-03-21T17:49:15.741Z,100648.63
2023-03-21T17:51:43.087Z,100653.13
2023-03-21T17:54:10.061Z,100649.91
2023-03-21T17:56:41.557Z,100645.84
2023-03-21T17:59:12.520Z,100647.47
2023-03-21T18:01:38.990Z,100648.13
2023-03-21T18:04:05.738Z,100652.94
2023-03-21T18:06:33.982Z,100648.94
2023-03-21T18:09:01.123Z,100647.78
2023-03-21T18:11:27.821Z,100644.16
2023-03-21T18:14:06.502Z,100642.22
2023-03-21T18:16:40.802Z,100639.16
2023-03-21T18:19:07.321Z,100641.19
2023-03-21T18:21:35.827Z,100645.41
2023-03-21T18:24:02.527Z,100646.19
2023-03-21T18:26:31.111Z,100642.38
2023-03-21T18:29:47.331Z,100648.06
2023-03-21T18:31:54.396Z,100644.72
2023-03-21T18:34:30.829Z,100640.72
2023-03-21T18:36:57.416Z,100646.31
2023-03-21T18:39:23.845Z,100642.75
2023-03-21T18:41:50.481Z,100643.22
2023-03-21T18:44:19.376Z,100640.47
2023-03-21T18:46:50.437Z,100652.00
2023-03-21T18:52:04.861Z,100648.63
2023-03-21T18:54:31.488Z,100650.47
2023-03-21T18:59:44.842Z,100633.25
2023-03-21T19:02:14.779Z,100640.41
2023-03-21T19:04:41.629Z,100641.56
2023-03-21T19:07:08.544Z,100638.53
2023-03-21T19:09:58.203Z,100636.44
2023-03-21T19:12:22.218Z,100636.22
2023-03-21T19:14:48.912Z,100635.09
2023-03-21T19:18:14.350Z,100626.53
2023-03-21T19:20:01.955Z,100628.72
2023-03-21T19:22:31.615Z,100626.44
2023-03-21T19:24:58.650Z,100621.22
2023-03-21T19:27:25.239Z,100631.53
2023-03-21T19:30:08.378Z,100627.50
2023-03-21T19:32:38.568Z,100628.31
2023-03-21T19:35:05.538Z,100628.38
2023-03-21T19:37:35.291Z,100625.56
2023-03-21T19:40:03.508Z,100622.75
2023-03-21T19:42:30.940Z,100637.19
2023-03-21T19:44:57.780Z,100626.50
2023-03-21T19:47:24.501Z,100619.88
2023-03-21T19:52:40.482Z,100614.56
2023-03-21T19:55:07.414Z,100621.50
2023-03-21T19:57:34.870Z,100618.06
2023-03-21T20:00:01.916Z,100611.28
2023-03-21T20:02:37.006Z,100616.41
2023-03-21T20:05:06.586Z,100610.81
2023-03-21T20:07:33.184Z,100610.91
2023-03-21T20:10:00.295Z,100611.13
2023-03-21T20:12:27.553Z,100612.59
2023-03-21T20:15:07.000Z,100603.41
2023-03-21T20:17:38.849Z,100605.44
2023-03-21T20:20:09.235Z,100611.13
2023-03-21T20:23:05.079Z,100613.31
2023-03-21T20:25:23.008Z,100606.72
2023-03-21T20:28:09.276Z,100597.81
2023-03-21T20:30:36.536Z,100591.06
2023-03-21T20:33:03.100Z,100597.94
2023-03-21T20:36:16.463Z,100595.44
2023-03-21T20:38:20.456Z,100596.25
2023-03-21T20:40:47.923Z,100587.03
2023-03-21T20:43:50.801Z,100585.91
2023-03-21T20:46:03.118Z,100580.38
2023-03-21T20:48:29.736Z,100571.63
2023-03-21T20:51:41.303Z,100589.28
2023-03-21T20:53:53.795Z,100594.84
2023-03-21T20:56:20.635Z,100595.44
2023-03-21T20:59:01.960Z,100590.22
2023-03-21T21:01:33.616Z,100587.72
2023-03-21T21:04:00.710Z,100583.88
2023-03-21T21:06:28.468Z,100583.06
2023-03-21T21:08:55.826Z,100582.00
2023-03-21T21:14:09.182Z,100581.34
2023-03-21T21:16:35.598Z,100579.72
2023-03-21T21:19:01.996Z,100580.63
2023-03-21T21:21:28.753Z,100577.00
2023-03-21T21:23:55.278Z,100584.38
2023-03-21T21:26:21.665Z,100572.22
2023-03-21T21:28:48.242Z,100567.22
2023-03-21T21:31:19.838Z,100571.41
2023-03-21T21:33:48.317Z,100568.56
2023-03-21T21:36:14.730Z,100575.13
2023-03-21T21:38:41.170Z,100571.81
2023-03-21T21:41:09.329Z,100570.91
2023-03-21T21:43:35.947Z,100572.75
2023-03-21T21:46:02.534Z,100560.00
2023-03-21T21:48:28.977Z,100562.38
2023-03-21T21:50:55.516Z,100558.63
2023-03-21T21:53:22.650Z,100558.63
2023-03-21T21:55:49.657Z,100555.41
2023-03-21T21:58:18.472Z,100555.78
2023-03-21T22:00:46.323Z,100554.78
2023-03-21T22:03:14.504Z,100545.63
2023-03-21T22:05:41.236Z,100551.44
2023-03-21T22:08:09.641Z,100546.56
2023-03-21T22:10:37.181Z,100550.13
2023-03-21T22:13:03.914Z,100549.06
2023-03-21T22:15:30.450Z,100549.06
2023-03-21T22:17:56.985Z,100549.31
2023-03-21T22:20:23.446Z,100546.81
2023-03-21T22:22:49.946Z,100534.25
2023-03-21T22:25:17.841Z,100540.41
2023-03-21T22:27:44.356Z,100541.06
2023-03-21T22:30:13.950Z,100540.66
2023-03-21T22:32:41.078Z,100541.44
2023-03-21T22:35:08.933Z,100538.13
2023-03-21T22:37:37.694Z,100542.69
2023-03-21T22:40:08.034Z,100533.44
2023-03-21T22:42:35.225Z,100533.34
2023-03-21T22:45:01.774Z,100534.69
2023-03-21T22:47:28.544Z,100523.75
2023-03-21T22:49:55.040Z,100528.66
2023-03-21T22:52:21.436Z,100529.13
2023-03-21T22:54:49.114Z,100531.06
2023-03-21T22:57:16.683Z,100526.88
2023-03-21T22:59:43.179Z,100528.81
2023-03-21T23:02:09.723Z,100529.59
2023-03-21T23:04:36.291Z,100521.41
2023-03-21T23:07:03.316Z,100512.84
2023-03-21T23:09:30.172Z,100508.28
2023-03-21T23:11:56.579Z,100503.94
2023-03-21T23:14:23.745Z,100516.38
2023-03-21T23:16:52.578Z,100505.34
2023-03-21T23:19:20.417Z,100514.22
2023-03-21T23:21:47.786Z,100516.75
2023-03-21T23:24:15.421Z,100513.75
2023-03-21T23:26:42.539Z,100517.97
2023-03-21T23:29:10.957Z,100516.75
2023-03-21T23:31:37.701Z,100513.94
2023-03-21T23:34:04.197Z,100520.69
2023-03-21T23:36:31.077Z,100522.97
2023-03-21T23:38:57.645Z,100526.50
2023-03-21T23:41:25.645Z,100525.94
2023-03-21T23:43:52.485Z,100518.31
2023-03-21T23:46:19.926Z,100520.56
2023-03-21T23:48:46.859Z,100514.41
2023-03-21T23:51:16.119Z,100513.94
2023-03-21T23:53:44.270Z,100508.75
2023-03-21T23:56:19.222Z,100507.63
2023-03-21T23:58:46.854Z,100505.00
